createdAt,value
2017-10-17T00:00:08.232Z,102105.13
2017-10-17T00:02:37.318Z,102108.72
2017-10-17T00:05:05.632Z,102109.55
2017-10-17T00:07:34.336Z,102110.40
2017-10-17T00:10:03.055Z,102113.22
2017-10-17T00:12:31.618Z,102123.23
2017-10-17T00:15:00.009Z,102110.67
2017-10-17T00:17:28.320Z,102114.13
2017-10-17T00:19:56.835Z,102111.87
2017-10-17T00:22:26.009Z,102122.06
2017-10-17T00:25:00.593Z,102120.09
2017-10-17T00:27:29.093Z,102125.91
2017-10-17T00:29:57.708Z,102130.94
2017-10-17T00:32:26.651Z,102131.36
2017-10-17T00:34:55.365Z,102128.14
2017-10-17T00:37:23.681Z,102135.31
2017-10-17T00:39:52.017Z,102131.99
2017-10-17T00:42:20.608Z,102138.67
2017-10-17T00:44:48.991Z,102139.88
2017-10-17T00:47:17.314Z,102143.72
2017-10-17T00:49:45.949Z,102141.33
2017-10-17T00:52:15.158Z,102138.22
2017-10-17T00:54:43.598Z,102136.34
2017-10-17T00:57:12.242Z,102142.89
2017-10-17T00:59:40.939Z,102135.00
2017-10-17T01:02:09.331Z,102137.91
2017-10-17T01:04:37.912Z,102141.69
2017-10-17T01:07:06.485Z,102152.06
2017-10-17T01:09:34.979Z,102144.59
2017-10-17T01:12:03.453Z,102142.42
2017-10-17T01:14:31.757Z,102138.16
2017-10-17T01:17:00.339Z,102140.34
2017-10-17T01:19:28.691Z,102138.41
2017-10-17T01:21:57.297Z,102139.72
2017-10-17T01:24:25.893Z,102132.67
2017-10-17T01:26:54.364Z,102137.23
2017-10-17T01:29:26.145Z,102134.85
2017-10-17T01:31:54.952Z,102134.95
2017-10-17T01:34:27.783Z,102127.70
2017-10-17T01:36:57.113Z,102128.77
2017-10-17T01:39:25.415Z,102127.94
2017-10-17T01:41:55.281Z,102120.16
2017-10-17T01:44:34.943Z,102120.88
2017-10-17T01:47:08.659Z,102116.87
2017-10-17T01:49:42.484Z,102121.43
2017-10-17T01:52:14.392Z,102130.25
2017-10-17T01:57:46.777Z,102135.64
2017-10-17T02:00:18.473Z,102136.57
2017-10-17T02:02:46.775Z,102136.57
2017-10-17T02:05:15.111Z,102133.48
2017-10-17T02:07:45.780Z,102126.54
2017-10-17T02:10:29.060Z,102132.14
2017-10-17T02:12:59.050Z,102125.09
2017-10-17T02:15:27.350Z,102117.83
2017-10-17T02:18:03.039Z,102113.36
2017-10-17T02:20:31.476Z,102118.78
2017-10-17T02:23:00.038Z,102124.17
2017-10-17T02:25:34.898Z,102116.59
2017-10-17T02:28:15.676Z,102114.03
2017-10-17T02:30:46.233Z,102115.78
2017-10-17T02:33:14.549Z,102115.68
2017-10-17T02:35:43.131Z,102117.64
2017-10-17T02:38:12.076Z,102110.52
2017-10-17T02:40:44.631Z,102116.72
2017-10-17T02:43:18.181Z,102112.16
2017-10-17T02:45:46.654Z,102118.89
2017-10-17T02:51:08.469Z,102128.84
2017-10-17T02:53:37.702Z,102124.20
2017-10-17T02:56:06.018Z,102127.92
2017-10-17T02:58:34.334Z,102124.60
2017-10-17T03:01:15.268Z,102126.25
2017-10-17T03:03:47.003Z,102127.80
2017-10-17T03:06:15.596Z,102121.37
2017-10-17T03:08:43.942Z,102127.38
2017-10-17T03:11:13.018Z,102131.52
2017-10-17T03:13:50.459Z,102129.55
2017-10-17T03:16:18.841Z,102131.71
2017-10-17T03:18:47.144Z,102125.70
2017-10-17T03:21:15.466Z,102139.05
2017-10-17T03:23:47.407Z,102136.88
2017-10-17T03:26:15.740Z,102138.94
2017-10-17T03:28:49.581Z,102138.94
2017-10-17T03:31:19.637Z,102138.30
2017-10-17T03:33:47.963Z,102135.95
2017-10-17T03:36:24.844Z,102140.29
2017-10-17T03:38:54.134Z,102143.08
2017-10-17T03:41:33.227Z,102148.35
2017-10-17T03:46:58.032Z,102148.23
2017-10-17T03:49:38.081Z,102149.27
2017-10-17T03:52:21.718Z,102152.89
2017-10-17T03:54:51.000Z,102146.79
2017-10-17T03:57:20.914Z,102151.13
2017-10-17T03:59:53.759Z,102153.61
2017-10-17T04:02:22.089Z,102148.84
2017-10-17T04:08:21.152Z,102150.78
2017-10-17T04:11:27.896Z,102145.52
2017-10-17T04:17:28.697Z,102151.92
2017-10-17T04:23:22.581Z,102146.52
2017-10-17T04:25:57.913Z,102147.97
2017-10-17T04:28:45.218Z,102148.27
2017-10-17T04:31:21.836Z,102148.05
2017-10-17T04:34:18.520Z,102150.87
2017-10-17T04:36:51.263Z,102165.55
2017-10-17T04:39:19.582Z,102160.27
2017-10-17T04:41:56.539Z,102163.67
2017-10-17T04:58:06.277Z,102160.78
2017-10-17T05:00:34.784Z,102162.35
2017-10-17T05:06:11.625Z,102162.94
2017-10-17T05:08:51.093Z,102154.97
2017-10-17T05:11:25.146Z,102166.86
2017-10-17T05:14:27.203Z,102167.14
2017-10-17T05:17:08.890Z,102165.17
2017-10-17T05:33:31.956Z,102151.65
2017-10-17T05:36:01.044Z,102157.34
2017-10-17T05:38:30.298Z,102163.14
2017-10-17T05:40:58.756Z,102166.51
2017-10-17T05:43:39.411Z,102167.53
2017-10-17T05:46:07.873Z,102167.83
2017-10-17T05:48:36.978Z,102167.09
2017-10-17T05:54:01.324Z,102162.70
2017-10-17T05:56:29.665Z,102167.67
2017-10-17T05:58:58.000Z,102173.69
2017-10-17T06:01:26.339Z,102180.19
2017-10-17T06:03:54.630Z,102173.24
2017-10-17T06:06:22.948Z,102176.95
2017-10-17T06:08:51.289Z,102179.01
2017-10-17T06:11:20.250Z,102184.16
2017-10-17T06:13:49.320Z,102188.19
2017-10-17T06:16:17.654Z,102190.14
2017-10-17T06:18:45.964Z,102185.05
2017-10-17T06:21:14.268Z,102193.34
2017-10-17T06:23:42.578Z,102202.84
2017-10-17T06:26:11.672Z,102201.92
2017-10-17T06:28:40.749Z,102203.27
2017-10-17T06:31:09.474Z,102202.43
2017-10-17T06:33:38.558Z,102204.70
2017-10-17T06:36:07.659Z,102203.58
2017-10-17T06:38:36.738Z,102202.11
2017-10-17T06:41:05.072Z,102213.28
2017-10-17T06:43:33.399Z,102212.99
2017-10-17T06:46:01.710Z,102214.11
2017-10-17T06:48:30.784Z,102213.92
2017-10-17T06:50:59.886Z,102208.55
2017-10-17T06:53:28.209Z,102220.23
2017-10-17T06:55:56.529Z,102216.39
2017-10-17T06:58:24.831Z,102222.31
2017-10-17T07:00:53.149Z,102218.50
2017-10-17T07:03:21.478Z,102217.67
2017-10-17T07:05:49.810Z,102215.39
2017-10-17T07:08:18.116Z,102213.77
2017-10-17T07:10:46.460Z,102214.41
2017-10-17T07:13:15.552Z,102219.81
2017-10-17T07:15:44.638Z,102223.94
2017-10-17T07:18:12.960Z,102221.28
2017-10-17T07:20:41.271Z,102218.41
2017-10-17T07:23:09.614Z,102214.88
2017-10-17T07:25:37.925Z,102222.76
2017-10-17T07:28:06.250Z,102213.09
2017-10-17T07:30:35.337Z,102221.38
2017-10-17T07:33:03.665Z,102218.62
2017-10-17T07:35:31.973Z,102219.16
2017-10-17T07:38:00.306Z,102217.53
2017-10-17T07:40:29.390Z,102225.69
2017-10-17T07:42:58.469Z,102223.03
2017-10-17T07:45:26.797Z,102226.77
2017-10-17T07:47:55.104Z,102233.75
2017-10-17T07:50:23.420Z,102230.31
2017-10-17T07:52:51.760Z,102236.23
2017-10-17T07:55:20.071Z,102239.38
2017-10-17T07:57:48.392Z,102240.33
2017-10-17T08:00:16.723Z,102233.30
2017-10-17T08:02:45.033Z,102225.94
2017-10-17T08:05:13.383Z,102226.48
2017-10-17T08:07:41.719Z,102224.55
2017-10-17T08:10:10.018Z,102227.45
2017-10-17T08:12:38.336Z,102236.89
2017-10-17T08:15:06.642Z,102229.25
2017-10-17T08:17:34.969Z,102229.08
2017-10-17T08:20:03.342Z,102231.76
2017-10-17T08:22:31.652Z,102234.48
2017-10-17T08:25:00.789Z,102237.70
2017-10-17T08:27:29.199Z,102241.23
2017-10-17T08:29:57.518Z,102237.82
2017-10-17T08:32:25.868Z,102230.25
2017-10-17T08:34:54.180Z,102225.08
2017-10-17T08:37:22.491Z,102225.83
2017-10-17T08:39:50.802Z,102223.47
2017-10-17T08:42:19.117Z,102233.72
2017-10-17T08:44:47.435Z,102228.15
2017-10-17T08:47:16.531Z,102231.17
2017-10-17T08:49:44.837Z,102231.92
2017-10-17T08:52:15.453Z,102237.64
2017-10-17T08:54:44.529Z,102235.06
2017-10-17T08:57:12.857Z,102232.90
2017-10-17T08:59:41.953Z,102234.86
2017-10-17T09:02:10.272Z,102244.52
2017-10-17T09:04:38.616Z,102250.52
2017-10-17T09:07:06.947Z,102243.59
2017-10-17T09:09:36.115Z,102245.07
2017-10-17T09:12:04.501Z,102245.36
2017-10-17T09:14:32.819Z,102252.95
2017-10-17T09:17:01.147Z,102250.58
2017-10-17T09:19:29.469Z,102249.94
2017-10-17T09:21:57.761Z,102244.14
2017-10-17T09:24:26.071Z,102247.67
2017-10-17T09:26:55.166Z,102237.38
2017-10-17T09:29:23.482Z,102240.30
2017-10-17T09:31:51.802Z,102245.49
2017-10-17T09:34:20.099Z,102250.14
2017-10-17T09:36:48.416Z,102252.74
2017-10-17T09:39:17.589Z,102252.85
2017-10-17T09:41:46.659Z,102251.81
2017-10-17T09:44:14.969Z,102241.55
2017-10-17T09:46:44.049Z,102241.83
2017-10-17T09:49:12.387Z,102237.37
2017-10-17T09:51:40.689Z,102241.53
2017-10-17T09:54:09.022Z,102237.72
2017-10-17T09:56:37.364Z,102235.20
2017-10-17T09:59:05.671Z,102242.16
2017-10-17T10:01:33.987Z,102245.27
2017-10-17T10:04:02.287Z,102244.44
2017-10-17T10:06:30.610Z,102249.94
2017-10-17T10:08:58.981Z,102250.36
2017-10-17T10:11:27.317Z,102247.84
2017-10-17T10:13:55.636Z,102246.91
2017-10-17T10:16:23.964Z,102241.81
2017-10-17T10:18:53.003Z,102235.90
2017-10-17T10:21:21.361Z,102244.06
2017-10-17T10:23:49.683Z,102245.73
2017-10-17T10:26:18.006Z,102256.42
2017-10-17T10:28:46.341Z,102244.27
2017-10-17T10:31:14.661Z,102240.12
2017-10-17T10:33:43.750Z,102240.53
2017-10-17T10:36:12.861Z,102245.73
2017-10-17T10:38:41.943Z,102247.18
2017-10-17T10:41:10.265Z,102246.66
2017-10-17T10:43:38.673Z,102238.45
2017-10-17T10:46:07.001Z,102251.64
2017-10-17T10:48:36.090Z,102243.23
2017-10-17T10:51:04.408Z,102243.55
2017-10-17T10:53:32.690Z,102241.98
2017-10-17T10:56:01.004Z,102227.77
2017-10-17T10:58:29.320Z,102230.56
2017-10-17T11:00:58.377Z,102233.67
2017-10-17T11:03:26.698Z,102234.62
2017-10-17T11:05:55.776Z,102232.12
2017-10-17T11:08:24.093Z,102235.13
2017-10-17T11:10:52.466Z,102233.89
2017-10-17T11:13:20.832Z,102233.58
2017-10-17T11:15:49.173Z,102235.14
2017-10-17T11:18:17.485Z,102233.06
2017-10-17T11:20:45.829Z,102228.08
2017-10-17T11:23:14.914Z,102223.72
2017-10-17T11:25:43.221Z,102216.34
2017-10-17T11:28:12.282Z,102220.50
2017-10-17T11:30:40.592Z,102210.84
2017-10-17T11:33:08.897Z,102211.88
2017-10-17T11:35:37.242Z,102212.50
2017-10-17T11:38:05.633Z,102204.40
2017-10-17T11:40:51.841Z,102206.78
2017-10-17T11:43:37.913Z,102205.09
2017-10-17T11:46:06.253Z,102197.02
2017-10-17T11:48:34.591Z,102201.80
2017-10-17T11:51:02.917Z,102200.88
2017-10-17T11:53:32.024Z,102203.88
2017-10-17T11:56:00.469Z,102203.98
2017-10-17T11:58:28.802Z,102197.75
2017-10-17T12:00:57.123Z,102189.97
2017-10-17T12:03:25.409Z,102192.25
2017-10-17T12:05:53.747Z,102183.12
2017-10-17T12:08:22.058Z,102174.39
2017-10-17T12:10:50.413Z,102182.08
2017-10-17T12:13:18.739Z,102163.08
2017-10-17T12:15:47.040Z,102166.30
2017-10-17T12:18:16.137Z,102169.52
2017-10-17T12:20:44.483Z,102171.33
2017-10-17T12:23:12.788Z,102171.84
2017-10-17T12:25:41.146Z,102169.77
2017-10-17T12:28:09.465Z,102172.36
2017-10-17T12:30:37.790Z,102171.73
2017-10-17T12:33:06.121Z,102170.19
2017-10-17T12:35:34.432Z,102168.01
2017-10-17T12:38:02.745Z,102173.52
2017-10-17T12:40:31.158Z,102167.28
2017-10-17T12:42:59.490Z,102159.39
2017-10-17T12:45:27.815Z,102152.23
2017-10-17T12:47:56.149Z,102157.42
2017-10-17T12:50:24.547Z,102144.45
2017-10-17T12:52:52.856Z,102149.02
2017-10-17T12:55:21.254Z,102146.14
2017-10-17T12:57:49.581Z,102155.49
2017-10-17T13:00:17.902Z,102145.36
2017-10-17T13:02:46.211Z,102140.45
2017-10-17T13:05:15.304Z,102145.53
2017-10-17T13:07:44.481Z,102152.59
2017-10-17T13:10:13.382Z,102144.70
2017-10-17T13:12:41.721Z,102136.61
2017-10-17T13:15:10.131Z,102136.41
2017-10-17T13:17:38.458Z,102130.63
2017-10-17T13:20:07.576Z,102131.98
2017-10-17T13:22:35.899Z,102138.62
2017-10-17T13:25:05.073Z,102129.48
2017-10-17T13:27:33.386Z,102123.16
2017-10-17T13:30:01.702Z,102123.99
2017-10-17T13:32:30.046Z,102124.30
2017-10-17T13:34:58.377Z,102125.03
2017-10-17T13:37:26.694Z,102120.36
2017-10-17T13:39:55.021Z,102117.25
2017-10-17T13:42:24.128Z,102123.40
2017-10-17T13:44:53.202Z,102115.41
2017-10-17T13:47:21.524Z,102119.56
2017-10-17T13:49:49.832Z,102118.84
2017-10-17T13:52:18.155Z,102124.44
2017-10-17T13:54:48.118Z,102121.22
2017-10-17T13:57:16.451Z,102117.80
2017-10-17T13:59:45.596Z,102118.21
2017-10-17T14:02:13.913Z,102107.66
2017-10-17T14:04:42.310Z,102119.80
2017-10-17T14:07:10.662Z,102127.06
2017-10-17T14:09:38.993Z,102116.58
2017-10-17T14:12:08.089Z,102114.92
2017-10-17T14:14:37.178Z,102113.36
2017-10-17T14:17:05.493Z,102099.29
2017-10-17T14:19:33.847Z,102096.70
2017-10-17T14:22:02.164Z,102085.19
2017-10-17T14:24:30.476Z,102088.19
2017-10-17T14:26:59.559Z,102084.14
2017-10-17T14:29:27.896Z,102085.59
2017-10-17T14:31:56.986Z,102079.17
2017-10-17T14:34:25.385Z,102085.19
2017-10-17T14:36:53.737Z,102087.98
2017-10-17T14:39:22.059Z,102075.54
2017-10-17T14:41:50.466Z,102080.65
2017-10-17T14:44:18.839Z,102069.04
2017-10-17T14:46:47.190Z,102064.23
2017-10-17T14:49:16.260Z,102066.23
2017-10-17T14:51:44.682Z,102067.87
2017-10-17T14:54:13.780Z,102060.02
2017-10-17T14:56:42.124Z,102068.52
2017-10-17T14:59:10.441Z,102062.58
2017-10-17T15:01:39.511Z,102057.33
2017-10-17T15:04:07.840Z,102056.91
2017-10-17T15:06:36.144Z,102046.02
2017-10-17T15:09:04.443Z,102054.39
2017-10-17T15:11:32.777Z,102049.94
2017-10-17T15:14:01.103Z,102042.36
2017-10-17T15:16:29.416Z,102042.36
2017-10-17T15:18:58.519Z,102044.54
2017-10-17T15:21:27.642Z,102040.73
2017-10-17T15:23:55.969Z,102030.58
2017-10-17T15:26:24.279Z,102032.03
2017-10-17T15:28:53.368Z,102028.09
2017-10-17T15:31:21.721Z,102035.66
2017-10-17T15:33:50.023Z,102029.95
2017-10-17T15:36:18.356Z,102031.82
2017-10-17T15:38:46.755Z,102027.36
2017-10-17T15:41:15.108Z,102026.74
2017-10-17T15:43:43.524Z,102019.28
2017-10-17T15:46:11.841Z,102014.92
2017-10-17T15:48:40.169Z,102006.97
2017-10-17T15:51:08.475Z,102004.38
2017-10-17T15:53:36.825Z,102010.59
2017-10-17T15:56:05.138Z,102002.93
2017-10-17T15:58:33.455Z,102001.38
2017-10-17T16:01:02.581Z,101986.03
2017-10-17T16:03:31.051Z,101994.95
2017-10-17T16:06:00.187Z,101998.78
2017-10-17T16:08:29.127Z,101994.88
2017-10-17T16:10:57.445Z,101999.33
2017-10-17T16:13:25.773Z,102001.19
2017-10-17T16:15:54.103Z,101992.27
2017-10-17T16:18:22.611Z,102000.45
2017-10-17T16:20:50.940Z,102002.31
2017-10-17T16:23:20.046Z,102000.55
2017-10-17T16:25:49.117Z,101997.98
2017-10-17T16:28:17.441Z,102003.05
2017-10-17T16:30:45.815Z,102000.88
2017-10-17T16:33:14.893Z,102003.88
2017-10-17T16:35:43.224Z,102002.10
2017-10-17T16:38:11.550Z,102003.89
2017-10-17T16:40:39.891Z,101998.08
2017-10-17T16:43:08.213Z,102002.73
2017-10-17T16:45:36.548Z,102008.52
2017-10-17T16:48:04.863Z,102005.84
2017-10-17T16:50:33.195Z,102008.84
2017-10-17T16:53:01.523Z,102013.08
2017-10-17T16:55:29.858Z,102006.55
2017-10-17T16:57:58.175Z,102005.72
2017-10-17T17:00:26.529Z,102009.55
2017-10-17T17:02:54.893Z,102011.70
2017-10-17T17:05:23.974Z,102016.86
2017-10-17T17:07:52.287Z,102020.84
2017-10-17T17:10:20.625Z,102021.58
2017-10-17T17:12:49.205Z,102023.30
2017-10-17T17:15:17.533Z,102019.05
2017-10-17T17:17:45.855Z,102022.60
2017-10-17T17:20:14.164Z,102026.02
2017-10-17T17:22:42.485Z,102018.95
2017-10-17T17:25:10.799Z,102029.27
2017-10-17T17:27:39.115Z,102023.67
2017-10-17T17:30:08.193Z,102025.09
2017-10-17T17:32:36.508Z,102029.81
2017-10-17T17:35:04.841Z,102026.17
2017-10-17T17:37:33.171Z,102024.27
2017-10-17T17:40:02.246Z,102026.86
2017-10-17T17:42:32.178Z,102021.27
2017-10-17T17:45:01.267Z,102027.66
2017-10-17T17:47:29.591Z,102020.02
2017-10-17T17:49:57.910Z,102020.63
2017-10-17T17:52:26.231Z,102025.47
2017-10-17T17:54:55.313Z,102018.52
2017-10-17T17:57:24.427Z,102020.06
2017-10-17T17:59:53.491Z,102014.05
2017-10-17T18:02:22.763Z,102018.80
2017-10-17T18:04:51.131Z,102016.30
2017-10-17T18:07:23.454Z,102017.52
2017-10-17T18:09:51.841Z,102020.59
2017-10-17T18:12:20.275Z,102014.06
2017-10-17T18:14:49.433Z,102008.06
2017-10-17T18:17:18.843Z,102011.86
2017-10-17T18:19:47.189Z,102014.33
2017-10-17T18:22:15.497Z,102006.78
2017-10-17T18:24:43.819Z,102007.06
2017-10-17T18:27:22.758Z,102005.60
2017-10-17T18:29:56.369Z,102007.74
2017-10-17T18:32:30.792Z,102004.70
2017-10-17T18:35:01.449Z,102000.48
2017-10-17T18:37:34.467Z,102003.88
2017-10-17T18:40:07.023Z,101997.00
2017-10-17T18:42:41.433Z,101996.04
2017-10-17T18:45:17.747Z,101994.50
2017-10-17T18:47:48.034Z,102001.38
2017-10-17T18:50:24.763Z,102003.41
2017-10-17T18:52:54.720Z,102003.51
2017-10-17T18:55:24.718Z,101995.42
2017-10-17T18:57:58.139Z,102001.77
2017-10-17T19:00:31.460Z,101993.63
2017-10-17T19:03:04.571Z,101997.65
2017-10-17T19:05:32.994Z,102002.75
2017-10-17T19:08:01.317Z,102002.81
2017-10-17T19:10:29.655Z,101993.73
2017-10-17T19:12:58.033Z,101998.56
2017-10-17T19:15:26.539Z,101985.55
2017-10-17T19:17:54.858Z,101987.69
2017-10-17T19:20:23.183Z,101978.27
2017-10-17T19:22:51.590Z,101987.94
2017-10-17T19:25:19.908Z,101983.59
2017-10-17T19:27:48.214Z,101978.64
2017-10-17T19:30:16.537Z,101973.08
2017-10-17T19:32:44.868Z,101982.56
2017-10-17T19:35:13.167Z,101980.99
2017-10-17T19:37:41.497Z,101973.13
2017-10-17T19:40:10.566Z,101978.27
2017-10-17T19:42:38.871Z,101968.02
2017-10-17T19:45:07.997Z,101965.61
2017-10-17T19:47:36.300Z,101961.59
2017-10-17T19:50:04.632Z,101965.19
2017-10-17T19:52:33.730Z,101961.45
2017-10-17T19:55:02.824Z,101956.14
2017-10-17T19:57:31.140Z,101958.59
2017-10-17T19:59:59.466Z,101950.64
2017-10-17T20:02:27.918Z,101955.07
2017-10-17T20:04:56.228Z,101955.07
2017-10-17T20:07:25.267Z,101962.70
2017-10-17T20:09:54.361Z,101956.83
2017-10-17T20:12:23.458Z,101954.84
2017-10-17T20:14:52.548Z,101956.78
2017-10-17T20:17:21.640Z,101952.03
2017-10-17T20:19:49.981Z,101953.23
2017-10-17T20:22:18.285Z,101949.81
2017-10-17T20:24:46.589Z,101950.09
2017-10-17T20:27:14.923Z,101955.16
2017-10-17T20:29:43.311Z,101952.16
2017-10-17T20:32:11.664Z,101951.52
2017-10-17T20:34:39.972Z,101957.06
2017-10-17T20:37:08.322Z,101958.63
2017-10-17T20:39:36.701Z,101957.57
2017-10-17T20:42:05.014Z,101958.69
2017-10-17T20:44:33.338Z,101955.36
2017-10-17T20:47:01.749Z,101949.86
2017-10-17T20:49:30.066Z,101953.59
2017-10-17T20:51:58.402Z,101958.31
2017-10-17T20:54:27.501Z,101963.48
2017-10-17T20:56:56.596Z,101951.20
2017-10-17T20:59:25.674Z,101948.94
2017-10-17T21:01:54.000Z,101951.61
2017-10-17T21:04:22.339Z,101949.95
2017-10-17T21:06:50.672Z,101949.75
2017-10-17T21:09:19.442Z,101946.24
2017-10-17T21:11:47.757Z,101942.22
2017-10-17T21:14:16.104Z,101943.98
2017-10-17T21:16:44.431Z,101945.00
2017-10-17T21:19:12.767Z,101942.22
2017-10-17T21:21:41.078Z,101937.88
2017-10-17T21:24:09.384Z,101930.53
2017-10-17T21:26:37.704Z,101935.38
2017-10-17T21:29:06.804Z,101931.97
2017-10-17T21:31:35.896Z,101936.31
2017-10-17T21:34:04.995Z,101938.34
2017-10-17T21:36:34.061Z,101932.34
2017-10-17T21:39:02.370Z,101928.09
2017-10-17T21:41:31.472Z,101922.30
2017-10-17T21:44:00.557Z,101923.59
2017-10-17T21:46:28.876Z,101913.34
2017-10-17T21:48:57.206Z,101912.70
2017-10-17T21:51:25.557Z,101908.95
2017-10-17T21:53:53.870Z,101910.60
2017-10-17T21:56:22.173Z,101913.74
2017-10-17T21:58:51.253Z,101905.66
2017-10-17T22:01:19.612Z,101911.59
2017-10-17T22:03:47.981Z,101903.23
2017-10-17T22:06:16.302Z,101902.11
2017-10-17T22:08:44.635Z,101900.86
2017-10-17T22:11:12.967Z,101899.80
2017-10-17T22:13:42.053Z,101896.56
2017-10-17T22:16:10.372Z,101892.31
2017-10-17T22:18:39.463Z,101905.47
2017-10-17T22:21:08.537Z,101910.59
2017-10-17T22:23:36.841Z,101907.09
2017-10-17T22:26:05.914Z,101911.31
2017-10-17T22:28:34.238Z,101909.15
2017-10-17T22:31:02.561Z,101901.41
2017-10-17T22:33:30.968Z,101900.19
2017-10-17T22:35:59.285Z,101901.94
2017-10-17T22:38:27.630Z,101894.70
2017-10-17T22:40:55.948Z,101900.47
2017-10-17T22:43:25.048Z,101890.86
2017-10-17T22:45:53.360Z,101898.75
2017-10-17T22:48:21.703Z,101893.16
2017-10-17T22:50:50.787Z,101890.67
2017-10-17T22:53:19.110Z,101888.50
2017-10-17T22:55:47.418Z,101891.36
2017-10-17T22:58:15.720Z,101897.34
2017-10-17T23:00:44.046Z,101903.48
2017-10-17T23:03:13.352Z,101888.11
2017-10-17T23:05:41.732Z,101890.46
2017-10-17T23:08:10.048Z,101883.12
2017-10-17T23:10:38.366Z,101875.27
2017-10-17T23:13:07.450Z,101874.02
2017-10-17T23:15:35.774Z,101874.02
2017-10-17T23:18:21.968Z,101872.18
2017-10-17T23:20:50.292Z,101876.05
2017-10-17T23:23:18.624Z,101878.73
2017-10-17T23:25:46.930Z,101878.44
2017-10-17T23:28:15.243Z,101872.03
2017-10-17T23:30:43.548Z,101872.87
2017-10-17T23:33:11.873Z,101867.75
2017-10-17T23:35:40.204Z,101872.41
2017-10-17T23:38:09.277Z,101867.70
2017-10-17T23:40:37.614Z,101861.57
2017-10-17T23:43:05.930Z,101859.87
2017-10-17T23:45:34.247Z,101854.11
2017-10-17T23:48:07.974Z,101849.12
2017-10-17T23:50:36.673Z,101863.81
2017-10-17T23:53:04.991Z,101853.74
2017-10-17T23:55:33.312Z,101847.57
2017-10-17T23:58:04.433Z,101847.11
